Seymour Johnson Air Force Base
KGSB : rendu visible

Aérodrome :











RETROUVEZ-NOUS SUR...

 
LOGIN :

S'inscrire | Disclaimer

   EN    FR    IT 

 









Légende :    VFR   VFR Marginal   IFR   IFR Intensif   IFR Très Intensif
Visi : 
Plafond : 
>= 8 km
>= 3000ft
5 à 8 km
1000 à 3000 ft
1500m à 5 km
500 à 1000 ft
800 à 1500m
200 à 500 ft
< 800m
< 200 ft
Symboles :   Orages  Brouillard  Fortes neiges  Fortes précipitations  Vent > 20 kt







- Altitude de l'aérodrome : 109 ft


KGSB - Seymour Johnson Air Force Base

DERNIER METAR :
  • 240656Z AUTO 23007KT 10SM CLR 23/20 A3007 RMK AO2 SLP185 T02250202 $

METARs EXPIRÉS :
  • 240556Z AUTO 23007KT 10SM CLR 23/20 A3008 RMK AO2 SLP188 T02290204 10286 20229 57009 $
  • 240456Z AUTO 22008KT 10SM CLR 24/21 A3009 RMK AO2 SLP192 T02360205 403160152 $

TAF TAF KGSB
Valide du 23 à 20h jusqu'au 25 à 02h UTC


232000Z 2320/2502 25010G15KT 9999 SCT030 SCT100 QNH3007INS
BECMG 2323/2324 23006KT 9999 SCT020 QNH3007INS
BECMG 2403/2404 20009KT 9999 SKC QNH3004INS
BECMG 2415/2416 30012G18KT 9999 FEW050 QNH2998INS TX34/2419Z TN21/2409Z LAST NO AMDS AFT 2403 NEXT 2820
FIR KZDC / Amérique du Nord



MET'MAP, la Météo Aéronautique d'un coup d'oeil ! - Copyright ORBIFLY Décembre 2007 - Disclaimer

ORBIFLY MET'MAP TEAM :

Programmation & Développement : Alexandra Zaïnal
Conception & Développement : Baudouin d'Aumeries
Co-Programmation & Développement : Marc-Olivier Méhu
Soutien technique & logistique : Manuel Goepfert

Contact : metmap@orbifly.com




SOURCES & CREDITS :

   NOAA       Earth
Advisory